Time;durP1;ratioP1;P1;durP2;ratioP2;P2;SDS_P1;SDS_P2;PMS_P1;PMS_P2;Temp;Humidity;BMP_temperature;BMP_pressure;BME280_temperature;BME280_humidity;BME280_pressure;Samples;Min_cycle;Max_cycle;Signal;HPM_P1;HPM_P2
2021/12/28 00:00:32;;;;;;;;;;;;;;;-15.16;68.02;97058.91;6397904;27;19923;-67
2021/12/28 00:03:37;;;;;;;;;;;;;;;-15.18;67.56;97055.47;6397731;27;19932;-67
2021/12/28 00:06:42;;;;;;;;;;;;;;;-14.85;66.51;97060.03;6397700;27;19931;-66
2021/12/28 00:09:43;;;;;;;;;;;;;;;-14.82;66.11;97045.84;6397687;27;19927;-67
2021/12/28 00:12:45;;;;;;;;;;;;;;;-14.76;65.85;97051.13;6396842;27;20308;-67
2021/12/28 00:18:59;;;;;;;;;;;;;;;-14.65;65.55;97048.97;6396311;27;19930;-68
2021/12/28 00:22:00;;;;;;;;;;;;;;;-14.72;65.56;97067.25;6396800;27;20308;-67
2021/12/28 00:25:04;;;;;;;;;;;;;;;-14.79;65.83;97065.31;6397450;27;19923;-67
2021/12/28 00:28:05;;;;;;;;;;;;;;;-14.86;65.85;97063.34;6396739;27;19930;-67
2021/12/28 00:31:07;;;;;;;;;;;;;;;-14.97;65.84;97061.31;6378218;27;20087;-67
2021/12/28 00:34:08;;;;;;;;;;;;;;;-15.23;66.80;97072.09;6397496;27;19929;-67
2021/12/28 00:37:09;;;;;;;;;;;;;;;-15.17;67.07;97067.25;6396718;27;19922;-67
2021/12/28 00:40:11;;;;;;;;;;;;;;;-15.03;66.94;97066.16;6397087;27;19930;-68
2021/12/28 00:43:12;;;;;;;;;;;;;;;-14.96;67.05;97072.28;6397027;27;19923;-68
2021/12/28 00:46:14;;;;;;;;;;;;;;;-15.24;67.35;97075.41;6396926;27;20387;-67
2021/12/28 00:49:15;;;;;;;;;;;;;;;-15.13;67.48;97069.13;6396515;27;19923;-67
2021/12/28 00:52:16;;;;;;;;;;;;;;;-15.20;67.70;97068.03;6396179;27;19954;-67
2021/12/28 00:55:18;;;;;;;;;;;;;;;-15.20;67.49;97062.09;6396531;27;19926;-67
2021/12/28 00:58:19;;;;;;;;;;;;;;;-15.14;66.92;97062.34;6397019;27;19923;-67
2021/12/28 01:01:21;;;;;;;;;;;;;;;-15.15;67.25;97070.72;6396217;27;20063;-67
2021/12/28 01:04:25;;;;;;;;;;;;;;;-15.22;66.75;97066.25;6396314;27;19930;-66
2021/12/28 01:07:26;;;;;;;;;;;;;;;-15.23;66.65;97062.00;6396408;27;19930;-67
2021/12/28 01:10:31;;;;;;;;;;;;;;;-15.15;66.60;97055.56;6396344;27;20327;-68
2021/12/28 01:13:32;;;;;;;;;;;;;;;-15.31;66.91;97063.34;6396976;27;19923;-67
2021/12/28 01:16:35;;;;;;;;;;;;;;;-15.43;67.16;97068.81;6396839;27;19967;-67
2021/12/28 01:19:37;;;;;;;;;;;;;;;-15.48;67.67;97071.16;6396599;27;19923;-67
2021/12/28 01:22:43;;;;;;;;;;;;;;;-15.40;67.40;97084.94;6396995;27;19923;-68
2021/12/28 01:25:44;;;;;;;;;;;;;;;-15.61;67.87;97079.03;6396330;27;19946;-67
2021/12/28 01:28:45;;;;;;;;;;;;;;;-15.53;68.26;97082.72;6400726;27;20335;-67
2021/12/28 01:31:48;;;;;;;;;;;;;;;-15.73;68.22;97084.50;6400583;27;19923;-67
2021/12/28 01:34:52;;;;;;;;;;;;;;;-15.34;68.38;97094.41;6401243;27;19923;-67
2021/12/28 01:37:56;;;;;;;;;;;;;;;-15.27;67.49;97103.91;6383141;27;19930;-67
2021/12/28 01:40:57;;;;;;;;;;;;;;;-15.53;67.70;97097.88;6400202;27;19927;-67
2021/12/28 01:44:01;;;;;;;;;;;;;;;-15.46;67.93;97106.53;6400225;27;19930;-67
2021/12/28 01:47:03;;;;;;;;;;;;;;;-15.42;68.01;97106.72;6399744;27;19934;-67
2021/12/28 01:50:05;;;;;;;;;;;;;;;-15.46;67.72;97104.00;6399936;27;19930;-67
2021/12/28 01:53:08;;;;;;;;;;;;;;;-15.62;67.36;97117.69;6400430;27;20396;-67
2021/12/28 01:56:11;;;;;;;;;;;;;;;-15.98;67.98;97122.97;6400746;27;19923;-67
2021/12/28 01:59:16;;;;;;;;;;;;;;;-16.07;68.41;97117.56;6400696;27;19923;-67
2021/12/28 02:02:20;;;;;;;;;;;;;;;-16.08;68.54;97130.94;6400384;27;20308;-67
2021/12/28 02:05:23;;;;;;;;;;;;;;;-15.97;68.63;97118.78;6399722;27;19992;-67
2021/12/28 02:08:24;;;;;;;;;;;;;;;-16.13;68.52;97112.25;6399707;27;19919;-67
2021/12/28 02:11:27;;;;;;;;;;;;;;;-16.31;68.81;97118.22;6399941;27;19933;-67
2021/12/28 02:14:33;;;;;;;;;;;;;;;-16.36;69.23;97118.81;6400024;27;19919;-67
2021/12/28 02:17:36;;;;;;;;;;;;;;;-16.46;69.42;97117.56;6399318;27;19923;-67
2021/12/28 02:20:44;;;;;;;;;;;;;;;-16.30;69.34;97127.53;6400159;27;19923;-67
2021/12/28 02:23:45;;;;;;;;;;;;;;;-16.47;69.21;97125.94;6399558;27;19923;-67
2021/12/28 02:26:47;;;;;;;;;;;;;;;-16.63;69.34;97128.56;6399083;27;20007;-67
2021/12/28 02:29:48;;;;;;;;;;;;;;;-16.73;69.57;97128.94;6398962;27;19923;-67
2021/12/28 02:32:55;;;;;;;;;;;;;;;-16.76;69.74;97138.09;6399783;27;19984;-67
2021/12/28 02:36:00;;;;;;;;;;;;;;;-16.81;69.40;97138.69;6398971;27;19923;-67
2021/12/28 02:39:03;;;;;;;;;;;;;;;-16.70;69.31;97146.69;6399730;27;20006;-68
2021/12/28 02:42:05;;;;;;;;;;;;;;;-16.89;69.40;97150.09;6399251;27;20204;-68
2021/12/28 02:45:18;;;;;;;;;;;;;;;-16.95;69.58;97150.69;6381090;27;19923;-67
2021/12/28 02:48:22;;;;;;;;;;;;;;;-17.00;69.50;97160.53;6399347;27;20005;-68
2021/12/28 02:51:23;;;;;;;;;;;;;;;-17.06;69.71;97156.88;6399351;27;20388;-68
2021/12/28 02:54:26;;;;;;;;;;;;;;;-17.04;69.89;97163.72;6399159;27;20041;-68
2021/12/28 02:57:27;;;;;;;;;;;;;;;-16.88;70.00;97169.44;6397594;27;20018;-67
2021/12/28 03:00:30;;;;;;;;;;;;;;;-16.86;69.89;97166.19;6398207;27;20417;-68
2021/12/28 03:03:33;;;;;;;;;;;;;;;-16.83;69.74;97166.34;6398209;27;19930;-67
2021/12/28 03:06:36;;;;;;;;;;;;;;;-16.78;69.79;97174.97;6398486;27;19926;-67
2021/12/28 03:09:39;;;;;;;;;;;;;;;-16.71;69.29;97160.09;6398562;27;19931;-67
2021/12/28 03:12:40;;;;;;;;;;;;;;;-16.76;69.17;97153.19;6397720;27;19926;-67
2021/12/28 03:15:44;;;;;;;;;;;;;;;-16.78;69.08;97159.88;6398248;27;19930;-67
2021/12/28 03:18:45;;;;;;;;;;;;;;;-16.85;69.27;97157.84;6398215;27;20004;-67
2021/12/28 03:21:46;;;;;;;;;;;;;;;-16.93;69.37;97169.22;6397870;27;19923;-68
2021/12/28 03:24:47;;;;;;;;;;;;;;;-17.00;69.65;97167.22;6397386;27;20281;-67
2021/12/28 03:27:48;;;;;;;;;;;;;;;-17.14;69.53;97178.31;6398087;27;19923;-67
2021/12/28 03:30:52;;;;;;;;;;;;;;;-17.26;69.54;97179.44;6397511;27;19923;-67
2021/12/28 03:33:54;;;;;;;;;;;;;;;-17.21;69.76;97177.13;6397087;27;20091;-67
2021/12/28 03:36:55;;;;;;;;;;;;;;;-17.24;69.53;97187.06;6397330;27;19946;-67
2021/12/28 03:39:59;;;;;;;;;;;;;;;-16.96;69.45;97169.06;6398202;27;19923;-67
2021/12/28 03:43:00;;;;;;;;;;;;;;;-16.96;68.63;97181.66;6397600;27;19923;-68
2021/12/28 03:46:04;;;;;;;;;;;;;;;-17.05;68.30;97193.81;6378675;27;19923;-67
2021/12/28 03:49:05;;;;;;;;;;;;;;;-17.02;68.40;97194.81;6396562;27;20368;-67
2021/12/28 03:52:06;;;;;;;;;;;;;;;-17.00;68.32;97192.38;6397243;27;20392;-67
2021/12/28 03:55:10;;;;;;;;;;;;;;;-17.10;68.40;97206.19;6397801;27;20388;-68
2021/12/28 03:58:14;;;;;;;;;;;;;;;-17.14;68.50;97214.38;6378932;27;20304;-67
2021/12/28 04:01:17;;;;;;;;;;;;;;;-17.12;68.67;97227.91;6397623;27;19930;-67
2021/12/28 04:04:18;;;;;;;;;;;;;;;-17.09;68.92;97222.16;6397567;27;19923;-67
2021/12/28 04:07:20;;;;;;;;;;;;;;;-17.11;68.90;97223.72;6397404;27;19923;-67
2021/12/28 04:10:29;;;;;;;;;;;;;;;-17.03;68.92;97222.44;6396887;27;19923;-67
2021/12/28 04:13:33;;;;;;;;;;;;;;;-16.98;68.77;97231.94;6397377;27;19983;-67
2021/12/28 04:16:34;;;;;;;;;;;;;;;-17.15;68.55;97222.72;6396738;27;20079;-67
2021/12/28 04:19:35;;;;;;;;;;;;;;;-17.29;69.07;97239.69;6396799;27;19923;-67
2021/12/28 04:22:39;;;;;;;;;;;;;;;-17.46;68.89;97246.41;6397104;27;19923;-67
2021/12/28 04:25:43;;;;;;;;;;;;;;;-17.61;69.03;97252.31;6397755;27;19927;-67
2021/12/28 04:28:47;;;;;;;;;;;;;;;-17.73;69.11;97248.41;6397303;27;19929;-67
2021/12/28 04:31:53;;;;;;;;;;;;;;;-17.56;69.79;97263.47;6397380;27;19923;-67
2021/12/28 04:34:54;;;;;;;;;;;;;;;-17.52;69.54;97253.66;6397030;27;20451;-67
2021/12/28 04:37:57;;;;;;;;;;;;;;;-17.47;69.65;97249.69;6397128;27;19927;-68
2021/12/28 04:40:58;;;;;;;;;;;;;;;-17.33;69.33;97247.84;6395927;27;19922;-67
2021/12/28 04:44:02;;;;;;;;;;;;;;;-17.25;68.95;97254.13;6396149;27;19930;-67
2021/12/28 04:47:03;;;;;;;;;;;;;;;-17.28;69.25;97251.44;6377881;27;19927;-66
2021/12/28 04:50:05;;;;;;;;;;;;;;;-17.27;69.07;97252.31;6395851;27;19923;-68
2021/12/28 04:53:10;;;;;;;;;;;;;;;-17.29;69.15;97262.31;6397165;27;20289;-68
2021/12/28 04:56:11;;;;;;;;;;;;;;;-17.18;69.09;97256.91;6397116;27;19923;-67
2021/12/28 04:59:16;;;;;;;;;;;;;;;-17.18;68.92;97261.94;6396844;27;19930;-67
2021/12/28 05:02:19;;;;;;;;;;;;;;;-17.03;68.83;97258.53;6399452;27;19930;-67
2021/12/28 05:05:22;;;;;;;;;;;;;;;-17.06;68.87;97253.34;6401811;27;19922;-68
2021/12/28 05:08:23;;;;;;;;;;;;;;;-16.98;68.87;97246.19;6401130;27;19927;-68
2021/12/28 05:11:31;;;;;;;;;;;;;;;-16.93;68.65;97248.88;6401818;27;20052;-68
2021/12/28 05:14:33;;;;;;;;;;;;;;;-16.98;68.81;97248.69;6400858;27;19923;-67
2021/12/28 05:17:34;;;;;;;;;;;;;;;-16.88;68.35;97257.53;6400681;27;20402;-68
2021/12/28 05:20:35;;;;;;;;;;;;;;;-16.87;68.52;97257.59;6399945;27;20009;-67
2021/12/28 05:23:36;;;;;;;;;;;;;;;-16.70;68.28;97267.56;6400847;27;20413;-67
2021/12/28 05:26:37;;;;;;;;;;;;;;;-16.44;68.07;97258.66;6400357;27;19919;-67
2021/12/28 05:29:38;;;;;;;;;;;;;;;-16.28;67.14;97262.75;6400339;27;19923;-67
2021/12/28 05:32:39;;;;;;;;;;;;;;;-16.32;66.66;97267.66;6400517;27;19926;-67
2021/12/28 05:35:45;;;;;;;;;;;;;;;-16.08;65.81;97267.03;6400992;27;20017;-67
2021/12/28 05:38:46;;;;;;;;;;;;;;;-16.18;66.07;97260.72;6400058;27;19919;-67
2021/12/28 05:41:48;;;;;;;;;;;;;;;-16.00;65.85;97255.63;6400801;27;19930;-67
2021/12/28 05:44:52;;;;;;;;;;;;;;;-15.99;65.40;97264.94;6400695;27;19923;-66
2021/12/28 05:47:55;;;;;;;;;;;;;;;-15.75;64.85;97266.78;6400938;27;19923;-67
2021/12/28 05:50:57;;;;;;;;;;;;;;;-15.77;64.49;97268.38;6400685;27;19923;-67
2021/12/28 05:54:00;;;;;;;;;;;;;;;-15.72;64.54;97262.72;6400629;27;19923;-66
2021/12/28 05:57:02;;;;;;;;;;;;;;;-15.43;63.60;97251.31;6400064;27;19923;-67
2021/12/28 06:00:08;;;;;;;;;;;;;;;-15.57;64.05;97251.53;6400894;27;20017;-68
2021/12/28 06:03:09;;;;;;;;;;;;;;;-15.54;63.65;97246.59;6399130;27;19930;-67
2021/12/28 06:06:11;;;;;;;;;;;;;;;-15.57;63.87;97246.47;6400522;27;19930;-67
2021/12/28 06:09:11;;;;;;;;;;;;;;;-15.27;64.09;97241.84;6400246;27;19923;-67
2021/12/28 06:12:15;;;;;;;;;;;;;;;-15.28;63.79;97246.03;6399927;27;19930;-67
2021/12/28 06:15:19;;;;;;;;;;;;;;;-15.22;63.33;97245.44;6400216;27;20392;-67
2021/12/28 06:18:20;;;;;;;;;;;;;;;-15.04;62.61;97246.16;6399069;27;19923;-67
2021/12/28 06:21:25;;;;;;;;;;;;;;;-15.08;62.51;97239.28;6399840;27;19927;-67
2021/12/28 06:24:26;;;;;;;;;;;;;;;-15.02;62.56;97241.19;6381186;27;19923;-67
2021/12/28 06:27:29;;;;;;;;;;;;;;;-15.07;62.85;97235.94;6399740;27;20388;-68
2021/12/28 06:30:33;;;;;;;;;;;;;;;-15.02;62.41;97237.00;6398683;27;20292;-67
2021/12/28 06:33:36;;;;;;;;;;;;;;;-14.74;61.68;97236.41;6399540;27;19923;-67
2021/12/28 06:36:38;;;;;;;;;;;;;;;-14.72;61.46;97239.00;6399697;27;19967;-67
2021/12/28 06:39:39;;;;;;;;;;;;;;;-14.60;61.03;97229.38;6399468;27;20067;-67
2021/12/28 06:42:43;;;;;;;;;;;;;;;-14.57;61.01;97218.53;6399518;27;19923;-67
2021/12/28 06:45:44;;;;;;;;;;;;;;;-14.53;60.03;97216.16;6398575;27;19923;-67
2021/12/28 06:48:48;;;;;;;;;;;;;;;-14.66;60.75;97219.03;6398268;27;19923;-68
2021/12/28 06:51:49;;;;;;;;;;;;;;;-14.75;60.63;97223.72;6380638;27;20395;-67
2021/12/28 06:54:53;;;;;;;;;;;;;;;-14.74;60.03;97216.22;6399070;27;19923;-67
2021/12/28 06:57:56;;;;;;;;;;;;;;;-14.62;60.17;97215.81;6399066;27;20392;-69
2021/12/28 07:00:57;;;;;;;;;;;;;;;-14.75;60.56;97211.09;6398382;27;19972;-70
2021/12/28 07:03:58;;;;;;;;;;;;;;;-14.90;60.43;97208.84;6398516;27;19930;-68
2021/12/28 07:06:59;;;;;;;;;;;;;;;-14.90;61.25;97203.78;6398868;27;20260;-68
2021/12/28 07:10:03;;;;;;;;;;;;;;;-14.94;61.33;97223.03;6398740;27;19923;-68
2021/12/28 07:13:07;;;;;;;;;;;;;;;-15.02;61.81;97203.31;6397684;27;19923;-67
2021/12/28 07:16:08;;;;;;;;;;;;;;;-14.66;61.21;97206.41;6397744;27;20311;-67
2021/12/28 07:19:12;;;;;;;;;;;;;;;-14.76;61.07;97199.28;6398562;27;19998;-68
2021/12/28 07:22:16;;;;;;;;;;;;;;;-13.57;61.54;97200.16;6398679;27;19967;-67
2021/12/28 07:25:20;;;;;;;;;;;;;;;-8.97;54.04;97201.53;6397514;27;19923;-70
2021/12/28 07:28:26;;;;;;;;;;;;;;;-4.68;46.55;97204.25;6397767;27;19927;-68
2021/12/28 07:31:27;;;;;;;;;;;;;;;-1.28;41.13;97211.59;6397970;27;19923;-70
2021/12/28 07:34:32;;;;;;;;;;;;;;;1.16;38.91;97209.09;6379196;27;19945;-69
2021/12/28 07:37:33;;;;;;;;;;;;;;;2.43;34.73;97203.38;6397504;27;19922;-68
2021/12/28 07:40:35;;;;;;;;;;;;;;;3.54;33.44;97206.22;6396881;27;20018;-66
2021/12/28 07:43:38;;;;;;;;;;;;;;;4.61;32.73;97201.72;6397670;27;19930;-66
2021/12/28 07:46:40;;;;;;;;;;;;;;;5.57;32.35;97205.91;6397814;27;19923;-66
2021/12/28 07:49:41;;;;;;;;;;;;;;;6.09;23.88;97205.59;6397201;27;19923;-65
2021/12/28 07:52:43;;;;;;;;;;;;;;;6.56;29.41;97213.16;6396921;27;19963;-64
2021/12/28 07:55:51;;;;;;;;;;;;;;;7.11;31.24;97208.13;6397898;27;19929;-63
2021/12/28 07:58:52;;;;;;;;;;;;;;;7.90;30.09;97205.28;6396723;27;20307;-64
2021/12/28 08:01:53;;;;;;;;;;;;;;;8.86;29.19;97202.19;6396868;27;20131;-64
2021/12/28 08:04:54;;;;;;;;;;;;;;;8.58;27.49;97197.53;6397011;27;20010;-68
2021/12/28 08:07:57;;;;;;;;;;;;;;;7.85;28.52;97208.09;6397470;27;19934;-68
2021/12/28 08:11:01;;;;;;;;;;;;;;;7.98;28.33;97203.13;6397617;27;19946;-67
2021/12/28 08:14:07;;;;;;;;;;;;;;;8.43;28.05;97198.28;6397387;27;20372;-69
2021/12/28 08:17:11;;;;;;;;;;;;;;;9.55;27.45;97202.84;6379320;27;19930;-68
2021/12/28 08:20:13;;;;;;;;;;;;;;;10.47;25.92;97201.09;6396406;27;19923;-68
2021/12/28 08:23:14;;;;;;;;;;;;;;;10.25;24.07;97201.47;6396380;27;19937;-67
2021/12/28 08:26:17;;;;;;;;;;;;;;;10.23;21.30;97203.34;6396066;27;19930;-68
2021/12/28 08:29:19;;;;;;;;;;;;;;;10.24;22.34;97199.75;6397255;27;19923;-68
2021/12/28 08:32:25;;;;;;;;;;;;;;;9.74;19.41;97181.63;6397208;27;19923;-69
2021/12/28 08:35:30;;;;;;;;;;;;;;;9.18;19.85;97184.69;6397946;27;19923;-68
2021/12/28 08:38:34;;;;;;;;;;;;;;;8.64;19.60;97185.88;6402516;27;19930;-67
2021/12/28 08:41:36;;;;;;;;;;;;;;;9.23;20.04;97187.09;6402287;27;19922;-69
2021/12/28 08:44:40;;;;;;;;;;;;;;;10.08;19.37;97186.69;6402175;27;19923;-68
2021/12/28 08:47:41;;;;;;;;;;;;;;;10.43;18.72;97182.94;6402086;27;19930;-68
2021/12/28 08:50:42;;;;;;;;;;;;;;;10.84;18.57;97184.84;6382859;27;20370;-69
2021/12/28 08:53:43;;;;;;;;;;;;;;;10.79;18.11;97182.53;6402029;27;20071;-68
2021/12/28 08:56:51;;;;;;;;;;;;;;;9.74;18.54;97179.88;6402038;27;19923;-69
2021/12/28 08:59:53;;;;;;;;;;;;;;;9.14;17.87;97177.94;6401113;27;19923;-69
2021/12/28 09:02:55;;;;;;;;;;;;;;;8.31;19.34;97181.38;6401843;27;19923;-69
2021/12/28 09:05:56;;;;;;;;;;;;;;;7.14;17.86;97168.72;6401812;27;19923;-69
2021/12/28 09:09:00;;;;;;;;;;;;;;;6.22;18.49;97166.72;6400643;27;19923;-69
2021/12/28 09:12:01;;;;;;;;;;;;;;;5.93;18.85;97167.94;6401149;27;19923;-69
2021/12/28 09:15:04;;;;;;;;;;;;;;;6.17;19.20;97185.25;6400828;27;19926;-69
2021/12/28 09:18:10;;;;;;;;;;;;;;;7.35;19.13;97181.72;6401465;27;19923;-69
2021/12/28 09:21:14;;;;;;;;;;;;;;;8.89;17.59;97178.41;6401696;27;20312;-67
2021/12/28 09:24:17;;;;;;;;;;;;;;;8.66;17.53;97179.63;6401546;27;20351;-68
2021/12/28 09:27:18;;;;;;;;;;;;;;;7.80;18.00;97177.81;6400635;27;19930;-69
2021/12/28 09:30:20;;;;;;;;;;;;;;;7.39;18.26;97176.28;6382788;27;19923;-69
2021/12/28 09:33:24;;;;;;;;;;;;;;;7.70;19.35;97182.66;6401274;27;20365;-68
2021/12/28 09:36:26;;;;;;;;;;;;;;;8.36;18.50;97176.75;6400371;27;19930;-68
2021/12/28 09:39:31;;;;;;;;;;;;;;;8.05;18.26;97178.31;6401366;27;19923;-69
2021/12/28 09:42:34;;;;;;;;;;;;;;;7.57;18.24;97174.53;6400858;27;19923;-68
2021/12/28 09:45:35;;;;;;;;;;;;;;;6.69;19.01;97182.97;6400265;27;19992;-69
2021/12/28 09:48:39;;;;;;;;;;;;;;;5.77;19.33;97184.22;6400079;27;20399;-68
2021/12/28 09:51:40;;;;;;;;;;;;;;;5.02;19.66;97191.53;6400010;27;19923;-68
2021/12/28 09:54:44;;;;;;;;;;;;;;;4.44;19.06;97187.53;6400618;27;19972;-68
2021/12/28 09:57:47;;;;;;;;;;;;;;;3.41;20.16;97181.47;6399437;27;19923;-67
2021/12/28 10:00:51;;;;;;;;;;;;;;;3.11;20.85;97187.56;6400347;27;19941;-67
2021/12/28 10:03:52;;;;;;;;;;;;;;;3.34;20.67;97184.25;6399653;27;19924;-67
2021/12/28 10:07:15;;;;;;;;;;;;;;;3.59;20.20;97197.34;6399846;27;19923;-70
2021/12/28 10:10:18;;;;;;;;;;;;;;;2.44;20.64;97192.13;6399970;27;19930;-67
2021/12/28 10:13:23;;;;;;;;;;;;;;;-1.00;24.14;97191.44;6398785;27;19923;-62
2021/12/28 10:16:44;;;;;;;;;;;;;;;-4.29;28.59;97179.41;6399256;27;19974;-61
2021/12/28 10:19:47;;;;;;;;;;;;;;;-6.43;31.87;97179.75;6399905;27;20025;-61
2021/12/28 10:22:53;;;;;;;;;;;;;;;-7.43;33.65;97178.91;6399971;27;19923;-62
2021/12/28 10:25:58;;;;;;;;;;;;;;;-8.23;35.31;97183.06;6398933;27;20411;-63
2021/12/28 10:29:02;;;;;;;;;;;;;;;-9.13;37.29;97174.91;6397470;27;19923;-62
2021/12/28 10:32:35;;;;;;;;;;;;;;;-9.69;38.98;97182.41;6373853;27;19924;-62
2021/12/28 10:35:40;;;;;;;;;;;;;;;-10.43;40.01;97183.47;6353098;27;20336;-62
2021/12/28 10:38:49;;;;;;;;;;;;;;;-10.87;41.10;97182.47;6373727;27;20396;-63
2021/12/28 10:41:50;;;;;;;;;;;;;;;-10.95;41.72;97189.94;6373749;27;20396;-63
2021/12/28 10:45:00;;;;;;;;;;;;;;;-11.30;42.46;97186.50;6373576;27;19927;-62
2021/12/28 10:48:10;;;;;;;;;;;;;;;-11.57;42.82;97179.91;6372587;27;19930;-63
2021/12/28 10:51:14;;;;;;;;;;;;;;;-11.88;43.94;97190.97;6372881;27;19923;-62
2021/12/28 10:54:16;;;;;;;;;;;;;;;-11.83;44.05;97193.56;6373503;27;20396;-63
2021/12/28 10:57:19;;;;;;;;;;;;;;;-12.19;44.59;97190.91;6372153;27;20265;-63
2021/12/28 11:00:25;;;;;;;;;;;;;;;-12.48;45.50;97193.44;6371538;27;19949;-63
2021/12/28 11:03:32;;;;;;;;;;;;;;;-12.66;45.32;97207.28;6372852;27;19930;-63
2021/12/28 11:06:34;;;;;;;;;;;;;;;-12.84;45.60;97200.81;6373519;27;19923;-63
2021/12/28 11:09:45;;;;;;;;;;;;;;;-13.26;45.62;97204.56;6372481;27;19924;-64
2021/12/28 11:12:48;;;;;;;;;;;;;;;-13.57;46.58;97201.03;6372250;27;19923;-63
2021/12/28 11:15:50;;;;;;;;;;;;;;;-13.80;47.00;97206.97;6371817;27;19923;-62
2021/12/28 11:18:51;;;;;;;;;;;;;;;-13.84;48.40;97210.19;6371979;27;19924;-62
2021/12/28 11:21:54;;;;;;;;;;;;;;;-14.12;48.88;97221.88;6371940;27;20008;-63
2021/12/28 11:24:55;;;;;;;;;;;;;;;-14.03;49.05;97222.19;6372763;27;19923;-62
2021/12/28 11:28:17;;;;;;;;;;;;;;;-13.99;49.75;97224.81;6372335;27;20392;-61
2021/12/28 11:31:20;;;;;;;;;;;;;;;-14.15;50.17;97219.22;6372526;27;19924;-64
2021/12/28 11:34:23;;;;;;;;;;;;;;;-14.28;50.64;97217.03;6372351;27;19946;-62
2021/12/28 11:37:27;;;;;;;;;;;;;;;-14.75;50.85;97221.19;6371782;27;20383;-63
2021/12/28 11:40:28;;;;;;;;;;;;;;;-14.88;51.01;97221.53;6372160;27;19923;-61
2021/12/28 11:43:31;;;;;;;;;;;;;;;-14.97;51.31;97222.03;6371817;27;19923;-63
2021/12/28 11:46:33;;;;;;;;;;;;;;;-15.07;50.92;97225.00;6372286;27;19923;-64
2021/12/28 11:49:35;;;;;;;;;;;;;;;-14.89;51.79;97219.78;6372050;27;19927;-63
2021/12/28 11:52:36;;;;;;;;;;;;;;;-14.65;51.83;97228.34;6371971;27;19929;-62
2021/12/28 11:55:38;;;;;;;;;;;;;;;-14.86;51.75;97232.53;6371130;27;19923;-63
2021/12/28 11:58:52;;;;;;;;;;;;;;;-15.07;52.03;97233.41;6372028;27;19931;-64
2021/12/28 12:01:55;;;;;;;;;;;;;;;-15.19;52.05;97235.47;6371077;27;19930;-64
2021/12/28 12:04:56;;;;;;;;;;;;;;;-15.08;52.46;97239.28;6371001;27;19927;-63
2021/12/28 12:08:17;;;;;;;;;;;;;;;-15.26;52.48;97248.63;6370767;27;20296;-62
2021/12/28 12:11:20;;;;;;;;;;;;;;;-15.33;53.34;97234.91;6370386;27;19923;-63
2021/12/28 12:14:44;;;;;;;;;;;;;;;-15.14;53.08;97249.13;6371682;27;20376;-63
2021/12/28 12:17:45;;;;;;;;;;;;;;;-15.22;53.40;97251.34;6371116;27;20401;-63
2021/12/28 12:20:55;;;;;;;;;;;;;;;-15.19;53.30;97261.56;6370248;27;20220;-63
2021/12/28 12:23:56;;;;;;;;;;;;;;;-15.24;53.84;97268.06;6371599;27;19934;-65
2021/12/28 12:26:59;;;;;;;;;;;;;;;-15.08;54.26;97268.72;6370964;28;19923;-62
2021/12/28 12:30:03;;;;;;;;;;;;;;;-15.22;54.34;97270.69;6370665;28;19919;-63
2021/12/28 12:33:11;;;;;;;;;;;;;;;-15.23;54.44;97284.06;6370881;28;20316;-63
2021/12/28 12:36:23;;;;;;;;;;;;;;;-15.15;54.45;97277.69;6370666;28;19919;-63
2021/12/28 12:39:24;;;;;;;;;;;;;;;-15.16;54.15;97278.50;6371173;28;20444;-63
2021/12/28 12:42:28;;;;;;;;;;;;;;;-15.40;54.78;97281.72;6371508;28;19930;-63
2021/12/28 12:45:48;;;;;;;;;;;;;;;-15.25;55.35;97273.06;6371382;28;20304;-64
2021/12/28 12:48:52;;;;;;;;;;;;;;;-15.08;55.01;97279.66;6371212;28;20328;-63
2021/12/28 12:52:05;;;;;;;;;;;;;;;-15.30;55.43;97287.16;6371287;28;19927;-63
2021/12/28 12:55:06;;;;;;;;;;;;;;;-15.11;55.59;97287.13;6370141;28;19924;-63
2021/12/28 12:58:14;;;;;;;;;;;;;;;-15.32;55.80;97283.69;6371185;28;20423;-65
2021/12/28 13:01:21;;;;;;;;;;;;;;;-15.31;56.41;97280.38;6371328;28;19923;-62
2021/12/28 13:04:24;;;;;;;;;;;;;;;-15.44;56.17;97284.06;6370467;28;19946;-63
2021/12/28 13:07:29;;;;;;;;;;;;;;;-15.57;56.38;97282.66;6371110;28;19923;-64
2021/12/28 13:10:32;;;;;;;;;;;;;;;-15.59;56.42;97286.78;6371254;28;19923;-64
2021/12/28 13:13:38;;;;;;;;;;;;;;;-15.68;56.25;97289.81;6370388;28;19927;-65
2021/12/28 13:16:40;;;;;;;;;;;;;;;-15.74;56.06;97299.63;6370751;28;19924;-62
2021/12/28 13:20:02;;;;;;;;;;;;;;;-15.94;56.47;97301.25;6370527;28;19927;-64
2021/12/28 13:23:08;;;;;;;;;;;;;;;-15.96;56.57;97307.91;6372431;27;19923;-64
2021/12/28 13:26:14;;;;;;;;;;;;;;;-15.95;56.72;97307.09;6374957;27;19933;-63
2021/12/28 13:29:24;;;;;;;;;;;;;;;-15.81;56.42;97306.88;6375436;27;20018;-62
2021/12/28 13:32:28;;;;;;;;;;;;;;;-15.97;56.77;97305.31;6374828;27;19930;-64
2021/12/28 13:35:32;;;;;;;;;;;;;;;-15.85;57.33;97296.66;6374952;27;20392;-63
2021/12/28 13:38:33;;;;;;;;;;;;;;;-15.69;57.64;97294.78;6374536;27;20384;-66
2021/12/28 13:41:34;;;;;;;;;;;;;;;-15.56;57.45;97288.59;6374170;27;19923;-64
2021/12/28 13:44:42;;;;;;;;;;;;;;;-15.23;57.94;97294.16;6374701;27;19923;-63
2021/12/28 13:47:45;;;;;;;;;;;;;;;-15.25;57.93;97290.75;6374735;27;19970;-63
2021/12/28 13:51:06;;;;;;;;;;;;;;;-15.27;58.63;97295.72;6374178;27;19959;-62
2021/12/28 13:54:08;;;;;;;;;;;;;;;-15.04;58.58;97291.59;6374867;27;20328;-64
2021/12/28 13:57:09;;;;;;;;;;;;;;;-14.93;58.16;97297.97;6374533;27;19924;-63
2021/12/28 14:00:12;;;;;;;;;;;;;;;-14.89;58.28;97291.34;6373953;27;19930;-63
2021/12/28 14:03:13;;;;;;;;;;;;;;;-14.75;58.17;97286.84;6374403;27;19931;-63
2021/12/28 14:06:17;;;;;;;;;;;;;;;-14.86;58.63;97291.47;6374605;27;20397;-64
2021/12/28 14:09:25;;;;;;;;;;;;;;;-14.74;58.80;97296.19;6373876;27;19925;-65
2021/12/28 14:12:26;;;;;;;;;;;;;;;-14.83;58.34;97296.69;6373732;27;19927;-62
2021/12/28 14:15:29;;;;;;;;;;;;;;;-14.90;59.21;97293.84;6374540;27;20299;-63
2021/12/28 14:18:42;;;;;;;;;;;;;;;-15.04;59.52;97280.66;6374332;27;19923;-64
2021/12/28 14:21:46;;;;;;;;;;;;;;;-14.81;59.67;97279.03;6373951;27;19923;-64
2021/12/28 14:24:50;;;;;;;;;;;;;;;-14.99;59.55;97284.22;6374187;27;19923;-63
2021/12/28 14:27:54;;;;;;;;;;;;;;;-15.06;59.26;97279.72;6374410;27;19928;-63
2021/12/28 14:31:09;;;;;;;;;;;;;;;-14.95;59.85;97294.50;6374280;27;19924;-64
2021/12/28 14:34:14;;;;;;;;;;;;;;;-15.06;59.84;97299.91;6356057;27;19924;-63
2021/12/28 14:37:16;;;;;;;;;;;;;;;-15.09;59.69;97300.66;6373235;27;20306;-63
2021/12/28 14:40:22;;;;;;;;;;;;;;;-15.09;60.04;97303.16;6372857;27;20032;-62
2021/12/28 14:43:29;;;;;;;;;;;;;;;-14.98;59.60;97312.06;6372911;27;19931;-64
2021/12/28 14:46:32;;;;;;;;;;;;;;;-15.21;59.50;97310.25;6373608;27;19993;-62
2021/12/28 14:49:34;;;;;;;;;;;;;;;-15.37;59.94;97306.19;6373298;27;20424;-63
2021/12/28 14:52:38;;;;;;;;;;;;;;;-15.36;60.56;97307.09;6373461;27;19947;-64
2021/12/28 14:55:40;;;;;;;;;;;;;;;-15.54;60.54;97315.56;6372205;27;20296;-63
2021/12/28 14:58:41;;;;;;;;;;;;;;;-15.57;60.67;97312.91;6372752;27;20415;-63
2021/12/28 15:01:43;;;;;;;;;;;;;;;-15.47;60.72;97310.00;6373281;27;19923;-62
2021/12/28 15:04:57;;;;;;;;;;;;;;;-15.19;59.99;97296.03;6372997;27;20388;-63
2021/12/28 15:08:02;;;;;;;;;;;;;;;-15.49;60.32;97306.56;6372460;27;19959;-62
2021/12/28 15:11:04;;;;;;;;;;;;;;;-15.55;60.11;97311.34;6372346;27;19923;-63
2021/12/28 15:14:08;;;;;;;;;;;;;;;-15.53;60.15;97314.81;6372989;27;19930;-63
2021/12/28 15:17:09;;;;;;;;;;;;;;;-15.54;60.46;97313.06;6372996;27;19924;-64
2021/12/28 15:20:11;;;;;;;;;;;;;;;-15.49;60.49;97315.78;6371436;27;19923;-63
2021/12/28 15:23:14;;;;;;;;;;;;;;;-15.85;60.40;97320.97;6372693;27;19927;-64
2021/12/28 15:26:15;;;;;;;;;;;;;;;-15.95;60.92;97319.72;6372711;27;19947;-62
2021/12/28 15:29:19;;;;;;;;;;;;;;;-15.95;61.10;97324.75;6372448;27;19942;-63
2021/12/28 15:32:21;;;;;;;;;;;;;;;-15.90;60.94;97330.88;6371716;27;20297;-63
2021/12/28 15:35:24;;;;;;;;;;;;;;;-15.93;60.76;97328.22;6371822;27;19926;-64
2021/12/28 15:38:25;;;;;;;;;;;;;;;-16.10;60.59;97314.84;6372482;27;19946;-64
2021/12/28 15:41:26;;;;;;;;;;;;;;;-16.16;60.58;97321.25;6372518;27;19927;-64
2021/12/28 15:44:31;;;;;;;;;;;;;;;-16.21;60.91;97331.16;6371946;27;19923;-64
2021/12/28 15:47:34;;;;;;;;;;;;;;;-16.35;61.41;97334.69;6372765;27;19930;-62
2021/12/28 15:50:38;;;;;;;;;;;;;;;-16.26;61.35;97339.28;6372242;27;19923;-65